sensor_id;sensor_type;location;lat;lon;timestamp;pressure;altitude;pressure_sealevel;temperature;humidity
68145;BME280;55400;51.824;-0.196;2023-03-04T00:03:56;102084.38;;;5.03;65.22
68145;BME280;55400;51.824;-0.196;2023-03-04T00:07:56;102085.08;;;4.99;65.22
68145;BME280;55400;51.824;-0.196;2023-03-04T00:11:56;102082.53;;;4.96;65.41
68145;BME280;55400;51.824;-0.196;2023-03-04T00:19:56;102086.72;;;4.92;65.49
68145;BME280;55400;51.824;-0.196;2023-03-04T00:23:56;102086.28;;;4.90;65.37
68145;BME280;55400;51.824;-0.196;2023-03-04T00:27:56;102087.37;;;4.89;65.33
68145;BME280;55400;51.824;-0.196;2023-03-04T00:31:56;102082.75;;;4.88;65.33
68145;BME280;55400;51.824;-0.196;2023-03-04T00:35:56;102084.34;;;4.86;65.30
68145;BME280;55400;51.824;-0.196;2023-03-04T00:39:56;102081.7;;;4.85;65.25
68145;BME280;55400;51.824;-0.196;2023-03-04T00:47:56;102069.76;;;4.87;65.26
68145;BME280;55400;51.824;-0.196;2023-03-04T01:03:56;102069.8;;;4.86;65.34
68145;BME280;55400;51.824;-0.196;2023-03-04T01:11:56;102070.23000000001;;;4.88;65.49
68145;BME280;55400;51.824;-0.196;2023-03-04T01:15:56;102068.25;;;4.87;65.60
68145;BME280;55400;51.824;-0.196;2023-03-04T01:31:56;102069.76;;;4.90;66.01
68145;BME280;55400;51.824;-0.196;2023-03-04T01:35:56;102071.13;;;4.89;66.11
68145;BME280;55400;51.824;-0.196;2023-03-04T01:39:56;102065.86;;;4.88;66.12
68145;BME280;55400;51.824;-0.196;2023-03-04T01:43:57;102058.8;;;4.89;66.21
68145;BME280;55400;51.824;-0.196;2023-03-04T01:47:56;102058.8;;;4.87;66.21
68145;BME280;55400;51.824;-0.196;2023-03-04T01:51:56;102056.1;;;4.89;66.22
68145;BME280;55400;51.824;-0.196;2023-03-04T01:55:57;102056.75;;;4.92;66.30
68145;BME280;55400;51.824;-0.196;2023-03-04T02:07:56;102035.36;;;4.84;66.30
68145;BME280;55400;51.824;-0.196;2023-03-04T02:15:56;102022.13;;;4.86;66.29
68145;BME280;55400;51.824;-0.196;2023-03-04T02:19:58;102022.79;;;4.88;66.28
68145;BME280;55400;51.824;-0.196;2023-03-04T02:23:59;102022.79;;;4.90;66.31
68145;BME280;55400;51.824;-0.196;2023-03-04T02:27:56;102023.15999999999;;;4.93;66.33
68145;BME280;55400;51.824;-0.196;2023-03-04T02:43:56;102003.77;;;4.94;66.53
68145;BME280;55400;51.824;-0.196;2023-03-04T02:47:56;102007.2;;;4.91;66.59
68145;BME280;55400;51.824;-0.196;2023-03-04T02:55:56;101993.59;;;4.89;66.60
68145;BME280;55400;51.824;-0.196;2023-03-04T02:59:56;101993.59;;;4.87;66.66
68145;BME280;55400;51.824;-0.196;2023-03-04T03:07:56;101988.95;;;4.89;66.68
68145;BME280;55400;51.824;-0.196;2023-03-04T03:15:56;101979.81;;;4.90;66.67
68145;BME280;55400;51.824;-0.196;2023-03-04T03:19:56;101978.72;;;4.92;66.69
68145;BME280;55400;51.824;-0.196;2023-03-04T03:27:57;101985.58;;;4.90;66.69
68145;BME280;55400;51.824;-0.196;2023-03-04T03:31:56;101979.98999999999;;;4.91;66.71
68145;BME280;55400;51.824;-0.196;2023-03-04T03:35:56;101985.19;;;4.90;66.77
68145;BME280;55400;51.824;-0.196;2023-03-04T03:39:56;101982.05;;;4.88;66.77
68145;BME280;55400;51.824;-0.196;2023-03-04T03:43:56;101982.05;;;4.86;66.79
68145;BME280;55400;51.824;-0.196;2023-03-04T03:51:57;101989.45;;;4.84;66.85
68145;BME280;55400;51.824;-0.196;2023-03-04T03:55:56;101985.77;;;4.82;66.86
68145;BME280;55400;51.824;-0.196;2023-03-04T03:59:56;101985.77;;;4.80;66.88
68145;BME280;55400;51.824;-0.196;2023-03-04T04:03:56;101985.77;;;4.79;66.92
68145;BME280;55400;51.824;-0.196;2023-03-04T04:07:57;101985.27;;;4.78;66.99
68145;BME280;55400;51.824;-0.196;2023-03-04T04:11:56;101985.27;;;4.74;66.99
68145;BME280;55400;51.824;-0.196;2023-03-04T04:19:57;101988.39;;;4.73;67.05
68145;BME280;55400;51.824;-0.196;2023-03-04T04:23:56;101992.69;;;4.74;67.06
68145;BME280;55400;51.824;-0.196;2023-03-04T04:35:57;101989.84;;;4.75;67.08
68145;BME280;55400;51.824;-0.196;2023-03-04T04:43:57;101990.39;;;4.77;67.11
68145;BME280;55400;51.824;-0.196;2023-03-04T04:47:57;101990.39;;;4.76;67.16
68145;BME280;55400;51.824;-0.196;2023-03-04T04:51:57;101994.82;;;4.71;67.21
68145;BME280;55400;51.824;-0.196;2023-03-04T04:55:57;101995.5;;;4.69;67.21
68145;BME280;55400;51.824;-0.196;2023-03-04T05:03:57;101999.97;;;4.67;67.30
68145;BME280;55400;51.824;-0.196;2023-03-04T05:07:57;102001.88;;;4.65;67.30
68145;BME280;55400;51.824;-0.196;2023-03-04T05:11:57;102001.88;;;4.64;67.28
68145;BME280;55400;51.824;-0.196;2023-03-04T05:15:57;102013.58;;;4.60;67.30
68145;BME280;55400;51.824;-0.196;2023-03-04T05:19:57;102023.44;;;4.57;67.63
68145;BME280;55400;51.824;-0.196;2023-03-04T05:23:57;102025.33;;;4.53;67.63
68145;BME280;55400;51.824;-0.196;2023-03-04T05:27:57;102025.73;;;4.49;68.03
68145;BME280;55400;51.824;-0.196;2023-03-04T05:31:57;102025.73;;;4.44;68.03
68145;BME280;55400;51.824;-0.196;2023-03-04T05:35:57;102024.14;;;4.40;68.25
68145;BME280;55400;51.824;-0.196;2023-03-04T05:43:57;102022.20999999999;;;4.42;68.57
68145;BME280;55400;51.824;-0.196;2023-03-04T05:47:57;102019.19;;;4.44;68.70
68145;BME280;55400;51.824;-0.196;2023-03-04T05:51:57;102017.81;;;4.45;68.70
68145;BME280;55400;51.824;-0.196;2023-03-04T05:55:57;102015.22;;;4.46;68.75
68145;BME280;55400;51.824;-0.196;2023-03-04T05:59:57;102021.57999999999;;;4.41;68.86
68145;BME280;55400;51.824;-0.196;2023-03-04T06:03:57;102021.57999999999;;;4.40;68.91
68145;BME280;55400;51.824;-0.196;2023-03-04T06:07:57;102030.5;;;4.38;68.99
68145;BME280;55400;51.824;-0.196;2023-03-04T06:11:57;102028.48;;;4.33;69.03
68145;BME280;55400;51.824;-0.196;2023-03-04T06:19:57;102025.76000000001;;;4.31;69.14
68145;BME280;55400;51.824;-0.196;2023-03-04T06:23:57;102023.5;;;4.33;69.14
68145;BME280;55400;51.824;-0.196;2023-03-04T06:31:57;102024.0;;;4.32;69.24
68145;BME280;55400;51.824;-0.196;2023-03-04T06:35:57;102024.45;;;4.30;69.26
68145;BME280;55400;51.824;-0.196;2023-03-04T06:39:57;102024.45;;;4.32;69.33
68145;BME280;55400;51.824;-0.196;2023-03-04T06:43:57;102023.14;;;4.31;69.32
68145;BME280;55400;51.824;-0.196;2023-03-04T06:47:57;102023.14;;;4.30;69.35
68145;BME280;55400;51.824;-0.196;2023-03-04T06:51:57;102027.0;;;4.29;69.41
68145;BME280;55400;51.824;-0.196;2023-03-04T06:55:57;102032.37000000001;;;4.30;69.38
68145;BME280;55400;51.824;-0.196;2023-03-04T07:03:57;102043.40999999999;;;4.31;69.49
68145;BME280;55400;51.824;-0.196;2023-03-04T07:07:57;102043.38;;;4.34;69.56
68145;BME280;55400;51.824;-0.196;2023-03-04T07:11:57;102047.89;;;4.36;69.55
68145;BME280;55400;51.824;-0.196;2023-03-04T07:15:58;102047.89;;;4.38;69.55
68145;BME280;55400;51.824;-0.196;2023-03-04T07:19:57;102046.93;;;4.40;69.56
68145;BME280;55400;51.824;-0.196;2023-03-04T07:35:57;102058.18000000001;;;4.38;69.67
68145;BME280;55400;51.824;-0.196;2023-03-04T07:39:57;102060.51999999999;;;4.40;69.71
68145;BME280;55400;51.824;-0.196;2023-03-04T07:43:57;102058.73;;;4.43;69.69
68145;BME280;55400;51.824;-0.196;2023-03-04T07:47:57;102058.37;;;4.44;69.70
68145;BME280;55400;51.824;-0.196;2023-03-04T07:51:57;102064.89;;;4.48;69.70
68145;BME280;55400;51.824;-0.196;2023-03-04T07:55:57;102064.89;;;4.49;69.70
68145;BME280;55400;51.824;-0.196;2023-03-04T08:03:57;102073.5;;;4.53;69.65
68145;BME280;55400;51.824;-0.196;2023-03-04T08:07:57;102073.5;;;4.56;69.57
68145;BME280;55400;51.824;-0.196;2023-03-04T08:11:57;102073.01999999999;;;4.54;69.54
68145;BME280;55400;51.824;-0.196;2023-03-04T08:15:57;102072.76000000001;;;4.53;69.52
68145;BME280;55400;51.824;-0.196;2023-03-04T08:19:57;102072.76000000001;;;4.54;69.51
68145;BME280;55400;51.824;-0.196;2023-03-04T08:27:57;102084.93999999999;;;4.56;69.59
68145;BME280;55400;51.824;-0.196;2023-03-04T08:31:57;102086.99;;;4.55;69.59
68145;BME280;55400;51.824;-0.196;2023-03-04T08:35:57;102086.99;;;4.58;69.59
68145;BME280;55400;51.824;-0.196;2023-03-04T08:39:57;102093.2;;;4.59;69.63
68145;BME280;55400;51.824;-0.196;2023-03-04T08:43:58;102094.42;;;4.58;69.72
68145;BME280;55400;51.824;-0.196;2023-03-04T08:47:57;102093.52;;;4.61;69.78
68145;BME280;55400;51.824;-0.196;2023-03-04T08:51:57;102088.55;;;4.67;69.78
68145;BME280;55400;51.824;-0.196;2023-03-04T08:55:57;102082.04;;;4.72;69.70
68145;BME280;55400;51.824;-0.196;2023-03-04T08:59:57;102081.53;;;4.71;69.74
68145;BME280;55400;51.824;-0.196;2023-03-04T09:03:57;102081.53;;;4.78;69.74
68145;BME280;55400;51.824;-0.196;2023-03-04T09:07:57;102084.25;;;4.84;69.69
68145;BME280;55400;51.824;-0.196;2023-03-04T09:11:57;102079.64;;;4.86;69.67
68145;BME280;55400;51.824;-0.196;2023-03-04T09:15:58;102076.54;;;4.88;69.65
68145;BME280;55400;51.824;-0.196;2023-03-04T09:19:57;102078.34;;;4.90;69.77
68145;BME280;55400;51.824;-0.196;2023-03-04T09:23:57;102076.68;;;4.92;69.89
68145;BME280;55400;51.824;-0.196;2023-03-04T09:27:57;102076.68;;;4.95;69.89
68145;BME280;55400;51.824;-0.196;2023-03-04T09:31:58;102081.76;;;4.96;69.94
68145;BME280;55400;51.824;-0.196;2023-03-04T09:35:57;102081.05;;;4.98;69.94
68145;BME280;55400;51.824;-0.196;2023-03-04T09:39:57;102079.49;;;4.99;70.04
68145;BME280;55400;51.824;-0.196;2023-03-04T09:43:57;102079.49;;;5.05;70.04
68145;BME280;55400;51.824;-0.196;2023-03-04T09:47:57;102080.51000000001;;;5.09;70.02
68145;BME280;55400;51.824;-0.196;2023-03-04T09:51:59;102079.16;;;5.11;69.87
68145;BME280;55400;51.824;-0.196;2023-03-04T09:55:58;102079.16;;;5.16;69.87
68145;BME280;55400;51.824;-0.196;2023-03-04T10:00:02;102080.33;;;5.19;69.73
68145;BME280;55400;51.824;-0.196;2023-03-04T10:07:58;102077.07;;;5.26;69.43
68145;BME280;55400;51.824;-0.196;2023-03-04T10:11:59;102071.61;;;5.35;69.30
68145;BME280;55400;51.824;-0.196;2023-03-04T10:15:58;102077.29000000001;;;5.42;69.21
68145;BME280;55400;51.824;-0.196;2023-03-04T10:19:58;102077.29000000001;;;5.44;69.21
68145;BME280;55400;51.824;-0.196;2023-03-04T10:23:59;102077.23;;;5.47;68.83
68145;BME280;55400;51.824;-0.196;2023-03-04T10:27:58;102077.23;;;5.44;68.83
68145;BME280;55400;51.824;-0.196;2023-03-04T10:36:00;102072.39;;;5.45;68.81
68145;BME280;55400;51.824;-0.196;2023-03-04T10:39:57;102069.23000000001;;;5.49;68.74
68145;BME280;55400;51.824;-0.196;2023-03-04T10:44:00;102068.34;;;5.54;68.77
68145;BME280;55400;51.824;-0.196;2023-03-04T10:47:57;102063.76000000001;;;5.56;68.77
68145;BME280;55400;51.824;-0.196;2023-03-04T10:52:01;102063.76000000001;;;5.54;68.66
68145;BME280;55400;51.824;-0.196;2023-03-04T10:55:58;102057.28;;;5.55;68.57
68145;BME280;55400;51.824;-0.196;2023-03-04T10:59:58;102058.4;;;5.60;68.47
68145;BME280;55400;51.824;-0.196;2023-03-04T11:07:58;102059.49;;;5.66;68.32
68145;BME280;55400;51.824;-0.196;2023-03-04T11:11:58;102059.49;;;5.69;68.17
68145;BME280;55400;51.824;-0.196;2023-03-04T11:15:59;102051.12000000001;;;5.70;67.97
68145;BME280;55400;51.824;-0.196;2023-03-04T11:23:59;102044.62;;;5.74;67.57
68145;BME280;55400;51.824;-0.196;2023-03-04T11:27:58;102039.17;;;5.80;67.58
68145;BME280;55400;51.824;-0.196;2023-03-04T11:36:01;102035.47;;;5.82;67.24
68145;BME280;55400;51.824;-0.196;2023-03-04T11:40:00;102034.42;;;5.85;67.24
68145;BME280;55400;51.824;-0.196;2023-03-04T11:43:58;102032.22;;;5.89;67.13
68145;BME280;55400;51.824;-0.196;2023-03-04T11:47:59;102028.94;;;5.90;67.01
68145;BME280;55400;51.824;-0.196;2023-03-04T11:51:59;102022.38;;;5.93;66.84
68145;BME280;55400;51.824;-0.196;2023-03-04T11:56:02;102022.38;;;5.95;66.78
68145;BME280;55400;51.824;-0.196;2023-03-04T12:00:01;102022.70999999999;;;6.01;66.65
68145;BME280;55400;51.824;-0.196;2023-03-04T12:04:01;102022.70999999999;;;6.02;66.65
68145;BME280;55400;51.824;-0.196;2023-03-04T12:08:02;102019.18;;;6.05;66.43
68145;BME280;55400;51.824;-0.196;2023-03-04T12:12:00;102011.8;;;6.07;66.27
68145;BME280;55400;51.824;-0.196;2023-03-04T12:15:59;101997.89;;;6.08;66.17
68145;BME280;55400;51.824;-0.196;2023-03-04T12:20:02;101990.19;;;6.11;66.15
68145;BME280;55400;51.824;-0.196;2023-03-04T12:24:05;101982.84;;;6.10;66.08
68145;BME280;55400;51.824;-0.196;2023-03-04T12:28:00;101977.59;;;6.09;65.91
68145;BME280;55400;51.824;-0.196;2023-03-04T12:31:59;101970.39;;;6.11;65.82
68145;BME280;55400;51.824;-0.196;2023-03-04T12:36:00;101965.78;;;6.12;65.82
68145;BME280;55400;51.824;-0.196;2023-03-04T12:40:03;101965.78;;;6.10;65.74
68145;BME280;55400;51.824;-0.196;2023-03-04T12:44:00;101958.23000000001;;;6.05;65.62
68145;BME280;55400;51.824;-0.196;2023-03-04T12:47:59;101954.94;;;6.01;65.49
68145;BME280;55400;51.824;-0.196;2023-03-04T12:52:00;101944.08;;;6.03;65.46
68145;BME280;55400;51.824;-0.196;2023-03-04T12:55:58;101944.08;;;6.07;65.46
68145;BME280;55400;51.824;-0.196;2023-03-04T12:59:59;101942.21;;;6.17;65.30
68145;BME280;55400;51.824;-0.196;2023-03-04T13:04:00;101938.92;;;6.25;65.22
68145;BME280;55400;51.824;-0.196;2023-03-04T13:08:00;101931.95;;;6.30;64.88
68145;BME280;55400;51.824;-0.196;2023-03-04T13:12:02;101931.95;;;6.33;64.59
68145;BME280;55400;51.824;-0.196;2023-03-04T13:16:00;101926.56;;;6.28;64.46
68145;BME280;55400;51.824;-0.196;2023-03-04T13:20:09;101925.9;;;6.24;64.38
68145;BME280;55400;51.824;-0.196;2023-03-04T13:23:59;101923.1;;;6.21;64.43
68145;BME280;55400;51.824;-0.196;2023-03-04T13:32:00;101915.01;;;6.15;64.57
68145;BME280;55400;51.824;-0.196;2023-03-04T13:35:58;101909.09;;;6.13;64.38
68145;BME280;55400;51.824;-0.196;2023-03-04T13:43:58;101909.19;;;6.17;64.38
68145;BME280;55400;51.824;-0.196;2023-03-04T13:56:01;101897.83;;;6.15;64.39
68145;BME280;55400;51.824;-0.196;2023-03-04T13:59:58;101894.97;;;6.19;64.36
68145;BME280;55400;51.824;-0.196;2023-03-04T14:03:58;101889.70000000001;;;6.24;64.31
68145;BME280;55400;51.824;-0.196;2023-03-04T14:11:58;101892.07;;;6.33;63.87
68145;BME280;55400;51.824;-0.196;2023-03-04T14:15:58;101892.07;;;6.35;63.87
68145;BME280;55400;51.824;-0.196;2023-03-04T14:19:58;101881.34;;;6.37;63.63
68145;BME280;55400;51.824;-0.196;2023-03-04T14:23:59;101880.94;;;6.38;63.36
68145;BME280;55400;51.824;-0.196;2023-03-04T14:28:03;101880.94;;;6.36;63.36
68145;BME280;55400;51.824;-0.196;2023-03-04T14:31:58;101875.95;;;6.34;63.11
68145;BME280;55400;51.824;-0.196;2023-03-04T14:35:59;101872.09;;;6.40;62.96
68145;BME280;55400;51.824;-0.196;2023-03-04T14:39:58;101869.23000000001;;;6.53;62.96
68145;BME280;55400;51.824;-0.196;2023-03-04T14:44:00;101869.23000000001;;;6.68;62.86
68145;BME280;55400;51.824;-0.196;2023-03-04T14:47:59;101865.9;;;6.80;62.69
68145;BME280;55400;51.824;-0.196;2023-03-04T14:51:58;101859.17;;;6.85;62.49
68145;BME280;55400;51.824;-0.196;2023-03-04T14:55:59;101858.98;;;6.87;62.15
68145;BME280;55400;51.824;-0.196;2023-03-04T15:03:59;101845.73000000001;;;6.66;62.24
68145;BME280;55400;51.824;-0.196;2023-03-04T15:07:59;101839.78;;;6.62;62.41
68145;BME280;55400;51.824;-0.196;2023-03-04T15:12:00;101832.54;;;6.63;62.41
68145;BME280;55400;51.824;-0.196;2023-03-04T15:15:59;101830.61;;;6.65;62.24
68145;BME280;55400;51.824;-0.196;2023-03-04T15:20:00;101828.83;;;6.64;62.24
68145;BME280;55400;51.824;-0.196;2023-03-04T15:23:58;101827.48;;;6.58;62.17
68145;BME280;55400;51.824;-0.196;2023-03-04T15:27:58;101827.94;;;6.48;62.41
68145;BME280;55400;51.824;-0.196;2023-03-04T15:31:58;101827.94;;;6.38;62.41
68145;BME280;55400;51.824;-0.196;2023-03-04T15:35:59;101810.17;;;6.30;62.42
68145;BME280;55400;51.824;-0.196;2023-03-04T15:39:58;101806.38;;;6.31;62.42
68145;BME280;55400;51.824;-0.196;2023-03-04T15:43:58;101807.67;;;6.35;62.44
68145;BME280;55400;51.824;-0.196;2023-03-04T15:51:58;101800.95;;;6.29;62.32
68145;BME280;55400;51.824;-0.196;2023-03-04T15:59:58;101796.74;;;6.30;62.39
68145;BME280;55400;51.824;-0.196;2023-03-04T16:03:58;101794.96;;;6.29;62.38
68145;BME280;55400;51.824;-0.196;2023-03-04T16:07:58;101794.32;;;6.27;62.31
68145;BME280;55400;51.824;-0.196;2023-03-04T16:11:58;101794.32;;;6.26;62.25
68145;BME280;55400;51.824;-0.196;2023-03-04T16:15:58;101791.28;;;6.25;62.26
68145;BME280;55400;51.824;-0.196;2023-03-04T16:19:58;101791.71;;;6.21;62.08
68145;BME280;55400;51.824;-0.196;2023-03-04T16:31:58;101799.57;;;6.20;61.82
68145;BME280;55400;51.824;-0.196;2023-03-04T16:35:58;101793.54;;;6.19;61.67
68145;BME280;55400;51.824;-0.196;2023-03-04T16:39:58;101793.54;;;6.16;61.47
68145;BME280;55400;51.824;-0.196;2023-03-04T16:43:59;101790.37;;;6.14;61.36
68145;BME280;55400;51.824;-0.196;2023-03-04T16:47:59;101790.37;;;6.15;61.27
68145;BME280;55400;51.824;-0.196;2023-03-04T16:51:58;101791.6;;;6.17;61.20
68145;BME280;55400;51.824;-0.196;2023-03-04T16:56:00;101791.09;;;6.19;61.24
68145;BME280;55400;51.824;-0.196;2023-03-04T16:59:58;101781.2;;;6.25;61.28
68145;BME280;55400;51.824;-0.196;2023-03-04T17:03:59;101785.04000000001;;;6.37;61.32
68145;BME280;55400;51.824;-0.196;2023-03-04T17:07:58;101785.35;;;6.51;61.14
68145;BME280;55400;51.824;-0.196;2023-03-04T17:11:59;101785.35;;;6.63;60.98
68145;BME280;55400;51.824;-0.196;2023-03-04T17:15:59;101784.78;;;6.67;60.75
68145;BME280;55400;51.824;-0.196;2023-03-04T17:19:59;101783.09000000001;;;6.75;60.68
68145;BME280;55400;51.824;-0.196;2023-03-04T17:23:59;101783.09000000001;;;6.81;60.54
68145;BME280;55400;51.824;-0.196;2023-03-04T17:27:59;101784.56;;;6.84;60.48
68145;BME280;55400;51.824;-0.196;2023-03-04T17:31:59;101784.55;;;6.83;60.47
68145;BME280;55400;51.824;-0.196;2023-03-04T17:35:59;101784.75;;;6.73;60.47
68145;BME280;55400;51.824;-0.196;2023-03-04T17:39:59;101789.09;;;6.75;60.64
68145;BME280;55400;51.824;-0.196;2023-03-04T17:47:59;101784.48;;;6.73;60.66
68145;BME280;55400;51.824;-0.196;2023-03-04T17:51:59;101791.17;;;6.66;60.74
68145;BME280;55400;51.824;-0.196;2023-03-04T17:56:00;101790.27;;;6.59;60.95
68145;BME280;55400;51.824;-0.196;2023-03-04T17:59:59;101790.27;;;6.55;61.13
68145;BME280;55400;51.824;-0.196;2023-03-04T18:03:59;101784.12;;;6.56;61.20
68145;BME280;55400;51.824;-0.196;2023-03-04T18:07:59;101784.3;;;6.53;61.20
68145;BME280;55400;51.824;-0.196;2023-03-04T18:11:59;101784.3;;;6.47;61.18
68145;BME280;55400;51.824;-0.196;2023-03-04T18:19:59;101776.92;;;6.45;61.22
68145;BME280;55400;51.824;-0.196;2023-03-04T18:23:59;101779.69;;;6.46;61.21
68145;BME280;55400;51.824;-0.196;2023-03-04T18:27:59;101775.98000000001;;;6.48;61.21
68145;BME280;55400;51.824;-0.196;2023-03-04T18:31:59;101775.98000000001;;;6.50;61.06
68145;BME280;55400;51.824;-0.196;2023-03-04T18:35:59;101773.03;;;6.54;60.94
68145;BME280;55400;51.824;-0.196;2023-03-04T18:39:59;101770.26;;;6.56;60.83
68145;BME280;55400;51.824;-0.196;2023-03-04T18:43:59;101772.47;;;6.51;60.86
68145;BME280;55400;51.824;-0.196;2023-03-04T18:47:59;101772.47;;;6.39;60.86
68145;BME280;55400;51.824;-0.196;2023-03-04T18:51:59;101773.63;;;6.34;61.16
68145;BME280;55400;51.824;-0.196;2023-03-04T18:55:59;101770.58;;;6.33;61.36
68145;BME280;55400;51.824;-0.196;2023-03-04T19:00:00;101770.58;;;6.28;61.42
68145;BME280;55400;51.824;-0.196;2023-03-04T19:03:59;101769.38;;;6.26;61.48
68145;BME280;55400;51.824;-0.196;2023-03-04T19:07:59;101764.15;;;6.25;61.51
68145;BME280;55400;51.824;-0.196;2023-03-04T19:11:59;101757.97;;;6.21;61.55
68145;BME280;55400;51.824;-0.196;2023-03-04T19:15:59;101754.25;;;6.11;61.72
68145;BME280;55400;51.824;-0.196;2023-03-04T19:19:59;101748.64;;;6.07;61.72
68145;BME280;55400;51.824;-0.196;2023-03-04T19:27:59;101750.01999999999;;;6.08;61.83
68145;BME280;55400;51.824;-0.196;2023-03-04T19:31:59;101755.26999999999;;;6.03;61.80
68145;BME280;55400;51.824;-0.196;2023-03-04T19:36:00;101756.95;;;5.99;61.88
68145;BME280;55400;51.824;-0.196;2023-03-04T19:39:59;101756.22;;;5.97;61.95
68145;BME280;55400;51.824;-0.196;2023-03-04T19:43:59;101755.5;;;5.92;62.05
68145;BME280;55400;51.824;-0.196;2023-03-04T19:47:59;101759.41;;;5.88;62.13
68145;BME280;55400;51.824;-0.196;2023-03-04T19:51:59;101755.28;;;5.91;62.05
68145;BME280;55400;51.824;-0.196;2023-03-04T19:55:59;101755.28;;;5.86;62.05
68145;BME280;55400;51.824;-0.196;2023-03-04T19:59:59;101759.06;;;5.84;62.04
68145;BME280;55400;51.824;-0.196;2023-03-04T20:04:00;101759.06;;;5.79;61.99
68145;BME280;55400;51.824;-0.196;2023-03-04T20:07:59;101757.48;;;5.76;61.97
68145;BME280;55400;51.824;-0.196;2023-03-04T20:11:59;101754.57;;;5.75;61.99
68145;BME280;55400;51.824;-0.196;2023-03-04T20:15:59;101754.16;;;5.76;61.96
68145;BME280;55400;51.824;-0.196;2023-03-04T20:23:59;101748.72;;;5.75;61.77
68145;BME280;55400;51.824;-0.196;2023-03-04T20:27:59;101745.17;;;5.73;61.75
68145;BME280;55400;51.824;-0.196;2023-03-04T20:31:59;101746.5;;;5.69;61.86
68145;BME280;55400;51.824;-0.196;2023-03-04T20:35:59;101739.18;;;5.68;61.81
68145;BME280;55400;51.824;-0.196;2023-03-04T20:39:59;101739.18;;;5.65;61.81
68145;BME280;55400;51.824;-0.196;2023-03-04T20:43:59;101739.93000000001;;;5.59;61.84
68145;BME280;55400;51.824;-0.196;2023-03-04T20:47:59;101747.03;;;5.53;61.86
68145;BME280;55400;51.824;-0.196;2023-03-04T20:52:00;101747.03;;;5.54;61.93
68145;BME280;55400;51.824;-0.196;2023-03-04T20:56:01;101748.18000000001;;;5.55;61.95
68145;BME280;55400;51.824;-0.196;2023-03-04T20:59:59;101741.95999999999;;;5.57;61.87
68145;BME280;55400;51.824;-0.196;2023-03-04T21:03:59;101741.95999999999;;;5.58;61.82
68145;BME280;55400;51.824;-0.196;2023-03-04T21:07:59;101747.11;;;5.59;61.71
68145;BME280;55400;51.824;-0.196;2023-03-04T21:15:59;101746.09;;;5.58;61.62
68145;BME280;55400;51.824;-0.196;2023-03-04T21:19:59;101746.09;;;5.55;61.62
68145;BME280;55400;51.824;-0.196;2023-03-04T21:23:59;101739.86;;;5.50;61.73
68145;BME280;55400;51.824;-0.196;2023-03-04T21:27:59;101731.33;;;5.48;61.77
68145;BME280;55400;51.824;-0.196;2023-03-04T21:32:00;101725.64;;;5.46;61.77
68145;BME280;55400;51.824;-0.196;2023-03-04T21:35:59;101725.64;;;5.45;61.80
68145;BME280;55400;51.824;-0.196;2023-03-04T21:39:59;101729.13;;;5.44;61.82
68145;BME280;55400;51.824;-0.196;2023-03-04T21:43:59;101724.84;;;5.40;61.80
68145;BME280;55400;51.824;-0.196;2023-03-04T21:51:59;101718.94;;;5.38;61.81
68145;BME280;55400;51.824;-0.196;2023-03-04T21:55:59;101718.94;;;5.33;61.81
68145;BME280;55400;51.824;-0.196;2023-03-04T21:59:59;101717.33;;;5.31;61.90
68145;BME280;55400;51.824;-0.196;2023-03-04T22:08:00;101711.41;;;5.29;62.00
68145;BME280;55400;51.824;-0.196;2023-03-04T22:11:59;101709.09;;;5.26;62.03
68145;BME280;55400;51.824;-0.196;2023-03-04T22:16:00;101705.47;;;5.25;62.03
68145;BME280;55400;51.824;-0.196;2023-03-04T22:19:59;101700.61;;;5.19;61.95
68145;BME280;55400;51.824;-0.196;2023-03-04T22:23:59;101698.51999999999;;;5.14;61.95
68145;BME280;55400;51.824;-0.196;2023-03-04T22:27:59;101695.95000000001;;;5.11;62.04
68145;BME280;55400;51.824;-0.196;2023-03-04T22:36:00;101694.17;;;5.09;62.12
68145;BME280;55400;51.824;-0.196;2023-03-04T22:48:00;101683.01;;;5.04;62.05
68145;BME280;55400;51.824;-0.196;2023-03-04T22:51:59;101672.46;;;5.00;62.06
68145;BME280;55400;51.824;-0.196;2023-03-04T22:55:59;101665.09999999999;;;5.02;62.23
68145;BME280;55400;51.824;-0.196;2023-03-04T22:59:59;101657.65;;;5.00;62.25
68145;BME280;55400;51.824;-0.196;2023-03-04T23:04:00;101657.65;;;4.94;62.18
68145;BME280;55400;51.824;-0.196;2023-03-04T23:07:59;101647.2;;;4.91;62.24
68145;BME280;55400;51.824;-0.196;2023-03-04T23:16:00;101652.68;;;4.87;62.27
68145;BME280;55400;51.824;-0.196;2023-03-04T23:19:59;101649.61;;;4.88;62.28
68145;BME280;55400;51.824;-0.196;2023-03-04T23:24:00;101639.45;;;4.89;62.28
68145;BME280;55400;51.824;-0.196;2023-03-04T23:28:00;101641.56;;;4.85;62.21
68145;BME280;55400;51.824;-0.196;2023-03-04T23:36:00;101627.95;;;4.86;62.30
68145;BME280;55400;51.824;-0.196;2023-03-04T23:40:00;101623.19;;;4.87;62.29
68145;BME280;55400;51.824;-0.196;2023-03-04T23:44:00;101623.19;;;4.88;62.24
68145;BME280;55400;51.824;-0.196;2023-03-04T23:48:00;101619.45;;;4.87;62.22
68145;BME280;55400;51.824;-0.196;2023-03-04T23:52:00;101609.06;;;4.86;62.24
68145;BME280;55400;51.824;-0.196;2023-03-04T23:56:00;101605.25;;;4.84;62.33
